D/T METAR WX W/DIR W/SPE G/SPE TEMP DEWP
24/04/19 19:50 EGXC 241850Z 20015KT CAVOK 13/08 Q0995 BLU SSW (200°) 17.3mph 13°C 8°C
24/04/19 18:50 EGXC 241750Z 21017KT 9999 SCT040 BKN080 15/08 Q0993 BLU SSW (210°) 19.6mph 15°C 8°C
24/04/19 17:50 EGXC 241650Z 20020KT 9999 BKN040 SCT080 18/11 Q0992 BLU SSW (200°) 23.0mph 18°C 11°C
24/04/19 16:50 EGXC 241550Z 15015G26KT 9999 SCT040 SCT080 19/11 Q0991 BLU NOSIG SSE (150°) 17.3mph 29.9mph 19°C 11°C
24/04/19 15:50 EGXC 241450Z 16014KT 9999 FEW040 BKN080 20/12 Q0991 BLU NOSIG SSE (160°) 16.1mph 20°C 12°C
24/04/19 14:50 EGXC 241350Z 13014KT 9999 FEW042 SCT045 BKN080 21/11 Q0991 BLU NOSIG SE (130°) 16.1mph 21°C 11°C
24/04/19 13:50 EGXC 241250Z 11010KT 9999 -SHRA FEW048 SCT090 20/11 Q0992 BLU TEMPO 7000 SHRA BKN020CB -SHRA ESE (110°) 11.5mph 20°C 11°C
24/04/19 12:50 EGXC 241150Z 12007KT CAVOK 19/11 Q0992 BLU NOSIG ESE (120°) 8.1mph 19°C 11°C
24/04/19 11:50 EGXC 241050Z 15004KT 8000 HZ SCT110 18/11 Q0992 BLU NOSIG HZ SSE (150°) 4.6mph 18°C 11°C
24/04/19 10:50 EGXC 240950Z 12006KT 8000 HZ FEW110 SCT200 16/10 Q0992 BLU NOSIG HZ ESE (120°) 6.9mph 16°C 10°C
24/04/19 09:50 EGXC 240850Z 11006KT 7000 HZ SCT110 SCT200 14/10 Q0992 WHT BECMG CAVOK BLU HZ ESE (110°) 6.9mph 14°C 10°C
24/04/19 08:50 EGXC 240750Z 09007KT 6000 HZ BKN110 BKN200 12/10 Q0993 WHT BECMG CAVOK BLU HZ E (90°) 8.1mph 12°C 10°C
24/04/19 07:50 EGXC 240650Z 08002KT 6000 HZ BKN110 OVC200 09/08 Q0993 WHT BECMG CAVOK BLU HZ E (80°) 2.3mph 9°C 8°C
24/04/19 06:50 EGXC 240550Z 29003KT 5000 BR BKN110 BKN200 07/06 Q0993 WHT NOSIG BR WNW (290°) 3.5mph 7°C 6°C
24/04/19 05:50 EGXC 240450Z 34004KT 5000 BR FEW150 BKN240 07/06 Q0993 WHT BR NNW (340°) 4.6mph 7°C 6°C
24/04/19 04:50 EGXC 240350Z 34004KT 6000 BR BKN240 07/07 Q0993 WHT BR NNW (340°) 4.6mph 7°C 7°C
24/04/19 03:50 EGXC 240250Z 01004KT 6000 HZ BKN230 08/07 Q0994 WHT HZ N (10°) 4.6mph 8°C 7°C
24/04/19 02:50 EGXC 240150Z 35004KT 7000 HZ BKN230 08/07 Q0994 WHT HZ N (350°) 4.6mph 8°C 7°C
24/04/19 01:50 EGXC 240050Z 35005KT 8000 HZ BKN230 08/07 Q0995 BLU HZ N (350°) 5.8mph 8°C 7°C
24/04/19 00:50 EGXC 232350Z 36003KT 9000 HZ BKN230 09/07 Q0995 BLU HZ N (360°) 3.5mph 9°C 7°C
23/04/19 23:50 EGXC 232250Z 03004KT CAVOK 10/07 Q0996 BLU NNE (30°) 4.6mph 10°C 7°C
23/04/19 22:50 EGXC 232150Z 03005KT CAVOK 10/07 Q0996 BLU NNE (30°) 5.8mph 10°C 7°C
23/04/19 21:50 EGXC 232050Z 07008KT CAVOK 11/08 Q0997 BLU ENE (70°) 9.2mph 11°C 8°C
23/04/19 20:50 EGXC 231950Z 07008KT CAVOK 11/08 Q0997 BLU ENE (70°) 9.2mph 11°C 8°C
23/04/19 19:50 EGXC 231850Z 07010KT CAVOK 12/08 Q0997 BLU ENE (70°) 11.5mph 12°C 8°C
23/04/19 18:50 EGXC 231750Z 07010KT CAVOK 13/08 Q0997 BLU ENE (70°) 11.5mph 13°C 8°C
23/04/19 17:50 EGXC 231650Z 07013KT CAVOK 14/07 Q0997 BLU ENE (70°) 15.0mph 14°C 7°C
23/04/19 16:50 EGXC 231550Z 07016KT CAVOK 15/07 Q0997 BLU NOSIG ENE (70°) 18.4mph 15°C 7°C
23/04/19 15:50 EGXC 231450Z 08013KT CAVOK 16/06 Q0998 BLU NOSIG E (80°) 15.0mph 16°C 6°C
23/04/19 14:50 EGXC 231350Z 08014KT CAVOK 16/07 Q0998 BLU NOSIG E (80°) 16.1mph 16°C 7°C
23/04/19 13:50 EGXC 231250Z 07011KT CAVOK 16/07 Q0999 BLU NOSIG ENE (70°) 12.7mph 16°C 7°C
23/04/19 12:50 EGXC 231150Z 08009KT CAVOK 15/08 Q0999 BLU NOSIG E (80°) 10.4mph 15°C 8°C
23/04/19 11:50 EGXC 231050Z 09010KT CAVOK 14/07 Q0999 BLU NOSIG E (90°) 11.5mph 14°C 7°C
23/04/19 10:50 EGXC 230950Z 08012KT CAVOK 13/08 Q1000 BLU NOSIG E (80°) 13.8mph 13°C 8°C
23/04/19 09:50 EGXC 230850Z 08014KT CAVOK 12/08 Q1000 BLU NOSIG E (80°) 16.1mph 12°C 8°C
23/04/19 08:50 EGXC 230750Z 08013KT CAVOK 12/08 Q1000 BLU NOSIG E (80°) 15.0mph 12°C 8°C
23/04/19 07:50 EGXC 230650Z 08012KT CAVOK 11/07 Q1000 BLU NOSIG E (80°) 13.8mph 11°C 7°C
23/04/19 06:50 EGXC 230550Z 08010KT CAVOK 11/07 Q1000 BLU NOSIG E (80°) 11.5mph 11°C 7°C
23/04/19 05:50 EGXC 230450Z 08009KT CAVOK 10/07 Q1000 BLU E (80°) 10.4mph 10°C 7°C
23/04/19 04:50 EGXC 230350Z 08008KT CAVOK 11/07 Q1000 BLU E (80°) 9.2mph 11°C 7°C
23/04/19 03:50 EGXC 230250Z 08009KT CAVOK 10/07 Q1001 BLU E (80°) 10.4mph 10°C 7°C
23/04/19 02:50 EGXC 230150Z 08008KT CAVOK 11/07 Q1001 BLU E (80°) 9.2mph 11°C 7°C
23/04/19 01:50 EGXC 230050Z 08009KT CAVOK 11/07 Q1001 BLU E (80°) 10.4mph 11°C 7°C
23/04/19 00:50 EGXC 222350Z 08009KT CAVOK 12/07 Q1002 BLU E (80°) 10.4mph 12°C 7°C
22/04/19 23:50 EGXC 222250Z 08007KT CAVOK 13/07 Q1002 BLU E (80°) 8.1mph 13°C 7°C
22/04/19 22:50 EGXC 222150Z 09008KT CAVOK 13/07 Q1003 BLU E (90°) 9.2mph 13°C 7°C
22/04/19 21:50 EGXC 222050Z 08009KT CAVOK 13/08 Q1003 BLU E (80°) 10.4mph 13°C 8°C
22/04/19 20:50 EGXC 221950Z 07010KT CAVOK 13/08 Q1003 BLU ENE (70°) 11.5mph 13°C 8°C
22/04/19 19:50 EGXC 221850Z 07009KT CAVOK 14/07 Q1003 BLU ENE (70°) 10.4mph 14°C 7°C
22/04/19 18:50 EGXC 221750Z 08012KT CAVOK 16/08 Q1003 BLU E (80°) 13.8mph 16°C 8°C
22/04/19 17:50 EGXC 221650Z 09012KT CAVOK 19/08 Q1003 BLU E (90°) 13.8mph 19°C 8°C
22/04/19 16:50 EGXC 221550Z 09015KT CAVOK 20/07 Q1003 BLU E (90°) 17.3mph 20°C 7°C
22/04/19 15:50 EGXC 221450Z 08015KT CAVOK 21/07 Q1004 BLU E (80°) 17.3mph 21°C 7°C
22/04/19 14:50 EGXC 221350Z 08016KT CAVOK 22/06 Q1005 BLU E (80°) 18.4mph 22°C 6°C
22/04/19 13:50 EGXC 221250Z 08014KT CAVOK 22/06 Q1006 BLU E (80°) 16.1mph 22°C 6°C
22/04/19 12:50 EGXC 221150Z 10011KT CAVOK 22/09 Q1006 BLU E (100°) 12.7mph 22°C 9°C
22/04/19 11:50 EGXC 221050Z 09009KT CAVOK 20/08 Q1007 BLU E (90°) 10.4mph 20°C 8°C
22/04/19 10:50 EGXC 220950Z 09008KT CAVOK 18/09 Q1008 BLU E (90°) 9.2mph 18°C 9°C
22/04/19 09:50 EGXC 220850Z 09007KT CAVOK 15/09 Q1009 BLU E (90°) 8.1mph 15°C 9°C
22/04/19 08:50 EGXC 220750Z 08007KT CAVOK 13/08 Q1009 BLU E (80°) 8.1mph 13°C 8°C
22/04/19 07:50 EGXC 220650Z 09005KT CAVOK 09/05 Q1010 BLU E (90°) 5.8mph 9°C 5°C
22/04/19 06:50 EGXC 220550Z 02003KT 8000 HZ SKC 08/03 Q1010 BLU HZ NNE (20°) 3.5mph 8°C 3°C
22/04/19 05:50 EGXC 220450Z 05002KT 7000 MIFG SKC 04/02 Q1010 WHT MIFG NE (50°) 2.3mph 4°C 2°C
22/04/19 04:50 EGXC 220350Z 07003KT 7000 HZ SKC 06/04 Q1011 WHT HZ ENE (70°) 3.5mph 6°C 4°C
22/04/19 03:50 EGXC 220250Z 08003KT 8000 HZ SKC 06/04 Q1012 BLU HZ E (80°) 3.5mph 6°C 4°C
22/04/19 02:50 EGXC 220150Z 10005KT CAVOK 06/04 Q1012 BLU E (100°) 5.8mph 6°C 4°C
22/04/19 01:50 EGXC 220050Z 09004KT CAVOK 07/04 Q1013 BLU E (90°) 4.6mph 7°C 4°C
22/04/19 00:50 EGXC 212350Z 09005KT CAVOK 08/04 Q1014 BLU E (90°) 5.8mph 8°C 4°C
21/04/19 23:50 EGXC 212250Z 09005KT CAVOK 09/05 Q1014 BLU E (90°) 5.8mph 9°C 5°C
21/04/19 22:50 EGXC 212150Z 09006KT CAVOK 09/05 Q1014 BLU E (90°) 6.9mph 9°C 5°C
21/04/19 21:50 EGXC 212050Z 08008KT CAVOK 10/05 Q1015 BLU E (80°) 9.2mph 10°C 5°C
21/04/19 20:50 EGXC 211950Z 08008KT CAVOK 12/06 Q1015 BLU E (80°) 9.2mph 12°C 6°C
21/04/19 19:50 EGXC 211850Z 08007KT CAVOK 14/05 Q1015 BLU E (80°) 8.1mph 14°C 5°C
21/04/19 18:50 EGXC 211750Z 07009KT CAVOK 17/06 Q1015 BLU ENE (70°) 10.4mph 17°C 6°C
21/04/19 17:50 EGXC 211650Z 08010KT CAVOK 20/06 Q1016 BLU E (80°) 11.5mph 20°C 6°C
21/04/19 16:50 EGXC 211550Z 08011KT CAVOK 21/07 Q1016 BLU E (80°) 12.7mph 21°C 7°C
21/04/19 15:50 EGXC 211450Z 14005KT CAVOK 22/07 Q1017 BLU SE (140°) 5.8mph 22°C 7°C
21/04/19 14:50 EGXC 211350Z 14007KT CAVOK 21/06 Q1018 BLU SE (140°) 8.1mph 21°C 6°C
21/04/19 13:50 EGXC 211250Z 11009KT CAVOK 21/05 Q1019 BLU ESE (110°) 10.4mph 21°C 5°C
21/04/19 12:50 EGXC 211150Z 12008KT CAVOK 20/06 Q1020 BLU ESE (120°) 9.2mph 20°C 6°C
21/04/19 11:50 EGXC 211050Z 13007KT CAVOK 20/05 Q1021 BLU SE (130°) 8.1mph 20°C 5°C
21/04/19 10:50 EGXC 210950Z 12006KT CAVOK 18/06 Q1022 BLU ESE (120°) 6.9mph 18°C 6°C
21/04/19 09:50 EGXC 210850Z 12005KT CAVOK 16/07 Q1023 BLU ESE (120°) 5.8mph 16°C 7°C
21/04/19 08:50 EGXC 210750Z 09004KT CAVOK 13/08 Q1023 BLU E (90°) 4.6mph 13°C 8°C
21/04/19 07:50 EGXC 210650Z 09001KT CAVOK 10/07 Q1023 BLU E (90°) 1.2mph 10°C 7°C
21/04/19 06:50 EGXC 210550Z 35002KT 7000 HZ SKC 07/04 Q1024 WHT HZ N (350°) 2.3mph 7°C 4°C
21/04/19 05:50 EGXC 210450Z 36002KT 7000 MIFG HZ SKC 06/05 Q1024 WHT MIFG HZ N (360°) 2.3mph 6°C 5°C
21/04/19 04:50 EGXC 210350Z 08003KT 5000 HZ SKC 05/04 Q1025 WHT HZ E (80°) 3.5mph 5°C 4°C
21/04/19 03:50 EGXC 210250Z 08003KT 5000 HZ SKC 05/04 Q1025 WHT HZ E (80°) 3.5mph 5°C 4°C
21/04/19 02:50 EGXC 210150Z 08002KT 7000 HZ SKC 07/04 Q1026 WHT HZ E (80°) 2.3mph 7°C 4°C
21/04/19 01:50 EGXC 210050Z 10003KT 7000 HZ SKC 07/06 Q1026 WHT HZ E (100°) 3.5mph 7°C 6°C
21/04/19 00:50 EGXC 202350Z AUTO 12003KT 8000 // NCD 06/04 Q1027 ESE (120°) 3.5mph 6°C 4°C
20/04/19 23:50 EGXC 202250Z 10004KT 8000 HZ SKC 07/05 Q1028 BLU HZ E (100°) 4.6mph 7°C 5°C
20/04/19 22:50 EGXC 202150Z 09004KT CAVOK 10/05 Q1028 BLU E (90°) 4.6mph 10°C 5°C
20/04/19 21:50 EGXC 202050Z 08008KT CAVOK 11/05 Q1028 BLU E (80°) 9.2mph 11°C 5°C
20/04/19 20:50 EGXC 201950Z 08007KT CAVOK 12/06 Q1028 BLU E (80°) 8.1mph 12°C 6°C
20/04/19 19:50 EGXC 201850Z 08008KT CAVOK 14/06 Q1028 BLU E (80°) 9.2mph 14°C 6°C
20/04/19 18:50 EGXC 201750Z 08008KT CAVOK 17/07 Q1028 BLU E (80°) 9.2mph 17°C 7°C
20/04/19 17:50 EGXC 201650Z 09011KT CAVOK 19/08 Q1029 BLU E (90°) 12.7mph 19°C 8°C
20/04/19 16:50 EGXC 201550Z 09009KT CAVOK 21/07 Q1029 BLU E (90°) 10.4mph 21°C 7°C
20/04/19 15:50 EGXC 201450Z 09009KT CAVOK 21/08 Q1029 BLU E (90°) 10.4mph 21°C 8°C
20/04/19 14:50 EGXC 201350Z 09009KT CAVOK 22/09 Q1030 BLU E (90°) 10.4mph 22°C 9°C
20/04/19 13:50 EGXC 201250Z 06009KT CAVOK 21/07 Q1030 BLU ENE (60°) 10.4mph 21°C 7°C
20/04/19 12:50 EGXC 201150Z 07008KT CAVOK 20/07 Q1031 BLU ENE (70°) 9.2mph 20°C 7°C
20/04/19 11:50 EGXC 201050Z 04007KT CAVOK 20/07 Q1031 BLU NE (40°) 8.1mph 20°C 7°C
20/04/19 10:50 EGXC 200950Z 04004KT CAVOK 18/09 Q1032 BLU NE (40°) 4.6mph 18°C 9°C
20/04/19 09:50 EGXC 200850Z 01002KT CAVOK 15/09 Q1032 BLU N (10°) 2.3mph 15°C 9°C
20/04/19 08:50 EGXC 200750Z 32003KT 8000 HZ SCT280 10/07 Q1032 BLU HZ NW (320°) 3.5mph 10°C 7°C
20/04/19 07:50 EGXC 200650Z 31003KT 5000 HZ BKN300 06/05 Q1032 WHT HZ NW (310°) 3.5mph 6°C 5°C
20/04/19 06:50 EGXC 200550Z 33003KT 5000 BR FEW300 05/04 Q1032 WHT BR NNW (330°) 3.5mph 5°C 4°C
20/04/19 05:50 EGXC 200450Z 33004KT 3000 BR FEW300 04/04 Q1032 YLO1 BR NNW (330°) 4.6mph 4°C 4°C
20/04/19 04:50 EGXC 200350Z 33004KT 4000 BR FEW300 05/04 Q1031 GRN BR NNW (330°) 4.6mph 5°C 4°C
20/04/19 03:50 EGXC 200250Z 33005KT 4500 BR SKC 06/05 Q1032 GRN BR NNW (330°) 5.8mph 6°C 5°C
20/04/19 02:50 EGXC 200150Z 35003KT 5000 BR FEW300 06/05 Q1032 WHT BR N (350°) 3.5mph 6°C 5°C
20/04/19 01:50 EGXC 200050Z 34003KT 5000 HZ FEW300 07/06 Q1032 WHT HZ NNW (340°) 3.5mph 7°C 6°C
20/04/19 00:50 EGXC 192350Z 30001KT 6000 HZ FEW300 07/06 Q1032 WHT HZ WNW (300°) 1.2mph 7°C 6°C
19/04/19 23:50 EGXC 192250Z 03003KT 8000 HZ FEW300 08/06 Q1032 BLU HZ NNE (30°) 3.5mph 8°C 6°C
19/04/19 22:50 EGXC 192150Z 05003KT 8000 HZ FEW300 08/06 Q1032 BLU HZ NE (50°) 3.5mph 8°C 6°C
19/04/19 21:50 EGXC 192050Z 06004KT CAVOK 09/06 Q1032 BLU ENE (60°) 4.6mph 9°C 6°C
19/04/19 20:50 EGXC 191950Z 03006KT CAVOK 11/07 Q1032 BLU NNE (30°) 6.9mph 11°C 7°C
19/04/19 19:50 EGXC 191850Z 06006KT CAVOK 13/06 Q1031 BLU ENE (60°) 6.9mph 13°C 6°C
19/04/19 18:50 EGXC 191750Z 06010KT CAVOK 16/05 Q1030 BLU ENE (60°) 11.5mph 16°C 5°C
19/04/19 17:50 EGXC 191650Z 08010KT CAVOK 18/06 Q1030 BLU E (80°) 11.5mph 18°C 6°C
19/04/19 16:50 EGXC 191550Z 06011KT CAVOK 19/05 Q1030 BLU ENE (60°) 12.7mph 19°C 5°C
19/04/19 15:50 EGXC 191450Z 08010KT CAVOK 20/06 Q1030 BLU E (80°) 11.5mph 20°C 6°C
19/04/19 14:50 EGXC 191350Z 08011KT CAVOK 21/05 Q1030 BLU E (80°) 12.7mph 21°C 5°C
19/04/19 13:50 EGXC 191250Z 08012KT CAVOK 20/05 Q1030 BLU E (80°) 13.8mph 20°C 5°C
19/04/19 12:50 EGXC 191150Z 09011KT CAVOK 20/06 Q1030 BLU E (90°) 12.7mph 20°C 6°C
19/04/19 11:50 EGXC 191050Z 07008KT CAVOK 19/07 Q1030 BLU ENE (70°) 9.2mph 19°C 7°C
19/04/19 10:50 EGXC 190950Z 06005KT CAVOK 17/08 Q1030 BLU ENE (60°) 5.8mph 17°C 8°C
19/04/19 09:50 EGXC 190850Z 06005KT CAVOK 16/07 Q1030 BLU ENE (60°) 5.8mph 16°C 7°C
19/04/19 08:50 EGXC 190750Z 06005KT CAVOK 14/08 Q1030 BLU ENE (60°) 5.8mph 14°C 8°C
19/04/19 07:50 EGXC 190650Z 04006KT CAVOK 11/08 Q1029 BLU NE (40°) 6.9mph 11°C 8°C
19/04/19 06:50 EGXC 190550Z 32005KT 7000 HZ BKN300 06/05 Q1029 WHT HZ NW (320°) 5.8mph 6°C 5°C
19/04/19 05:50 EGXC 190450Z 32004KT 6000 HZ BKN250 06/04 Q1029 WHT HZ NW (320°) 4.6mph 6°C 4°C
19/04/19 04:50 EGXC 190350Z 01005KT 8000 HZ BKN250 07/06 Q1028 BLU HZ N (10°) 5.8mph 7°C 6°C
19/04/19 03:50 EGXC 190250Z 35004KT 8000 HZ BKN250 07/05 Q1028 BLU HZ N (350°) 4.6mph 7°C 5°C
19/04/19 02:50 EGXC 190150Z AUTO 01004KT 9000 // NCD 09/06 Q1028 N (10°) 4.6mph 9°C 6°C
19/04/19 01:50 EGXC 190050Z 35004KT CAVOK 09/06 Q1028 BLU N (350°) 4.6mph 9°C 6°C
19/04/19 00:50 EGXC 182350Z 06008KT CAVOK 10/06 Q1028 BLU ENE (60°) 9.2mph 10°C 6°C
18/04/19 23:50 EGXC 182250Z 07009KT CAVOK 10/06 Q1028 BLU ENE (70°) 10.4mph 10°C 6°C
18/04/19 22:50 EGXC 182150Z 08007KT CAVOK 09/07 Q1028 BLU E (80°) 8.1mph 9°C 7°C
18/04/19 21:50 EGXC 182050Z 08006KT CAVOK 09/07 Q1028 BLU E (80°) 6.9mph 9°C 7°C
18/04/19 20:50 EGXC 181950Z 08011KT CAVOK 11/07 Q1027 BLU E (80°) 12.7mph 11°C 7°C